Time;durP1;ratioP1;P1;durP2;ratioP2;P2;SDS_P1;SDS_P2;PMS_P1;PMS_P2;Temp;Humidity;BMP_temperature;BMP_pressure;BME280_temperature;BME280_humidity;BME280_pressure;Samples;Min_cycle;Max_cycle;Signal;HPM_P1;HPM_P2
2023/07/28 00:00:31;;;;;;;7.13;2.20;;;;;;;22.39;40.21;98879.66;5033024;28;20265;-86
2023/07/28 00:02:56;;;;;;;4.87;2.23;;;;;;;22.36;39.94;98888.00;5032776;28;20520;-86
2023/07/28 00:05:21;;;;;;;8.17;1.70;;;;;;;22.46;39.95;98880.69;5032888;28;20185;-86
2023/07/28 00:07:47;;;;;;;3.00;1.50;;;;;;;22.50;39.55;98871.38;5033232;28;20170;-86
2023/07/28 00:10:12;;;;;;;5.40;2.10;;;;;;;22.50;39.61;98878.53;5032715;28;20608;-84
2023/07/28 00:12:38;;;;;;;3.17;1.93;;;;;;;22.56;39.83;98886.72;5035055;28;20181;-84
2023/07/28 00:15:03;;;;;;;4.33;1.40;;;;;;;22.46;39.88;98886.03;5035431;28;20178;-84
2023/07/28 00:17:29;;;;;;;3.43;1.40;;;;;;;22.45;39.81;98894.22;5036559;28;20197;-84
2023/07/28 00:19:54;;;;;;;4.77;1.73;;;;;;;22.50;39.95;98897.22;5036618;28;20172;-84
2023/07/28 00:22:20;;;;;;;3.13;1.77;;;;;;;22.52;39.87;98901.41;5035633;28;20206;-84
2023/07/28 00:24:45;;;;;;;2.40;1.43;;;;;;;22.55;39.75;98903.78;5036786;28;20698;-84
2023/07/28 00:27:12;;;;;;;2.07;1.43;;;;;;;22.44;39.80;98909.41;5036473;28;20171;-84
2023/07/28 00:29:38;;;;;;;4.30;1.67;;;;;;;22.50;40.03;98914.09;5036436;28;20170;-84
2023/07/28 00:32:03;;;;;;;3.07;1.93;;;;;;;22.59;39.77;98915.78;5036370;28;20185;-84
2023/07/28 00:34:29;;;;;;;3.33;1.90;;;;;;;22.62;39.71;98917.28;5035340;28;20273;-84
2023/07/28 00:36:54;;;;;;;5.27;1.53;;;;;;;22.56;40.16;98909.94;5036249;28;20648;-84
2023/07/28 00:39:19;;;;;;;3.57;1.57;;;;;;;22.49;39.99;98911.56;5035302;28;20185;-84
2023/07/28 00:41:45;;;;;;;2.93;1.80;;;;;;;22.37;39.92;98907.53;5036251;28;20586;-84
2023/07/28 00:44:10;;;;;;;4.70;1.57;;;;;;;22.42;40.11;98916.75;5036121;28;20167;-84
2023/07/28 00:46:36;;;;;;;3.37;1.50;;;;;;;22.41;40.17;98915.06;5035032;28;20190;-84
2023/07/28 00:49:03;;;;;;;3.07;1.80;;;;;;;22.35;40.46;98910.34;5035999;28;20635;-84
2023/07/28 00:51:29;;;;;;;3.30;1.30;;;;;;;22.28;40.30;98917.31;5035053;28;20277;-84
2023/07/28 00:53:54;;;;;;;3.33;1.73;;;;;;;22.34;40.29;98918.53;5035874;28;20616;-84
2023/07/28 00:56:21;;;;;;;2.93;1.40;;;;;;;22.28;40.32;98924.50;5035853;28;20198;-84
2023/07/28 00:58:47;;;;;;;3.87;1.47;;;;;;;22.24;40.18;98929.34;5036464;28;20197;-84
2023/07/28 01:01:12;;;;;;;6.30;1.47;;;;;;;22.14;40.80;98923.28;5034695;28;20201;-84
2023/07/28 01:03:38;;;;;;;3.13;1.60;;;;;;;22.23;40.60;98916.97;5036131;28;20351;-84
2023/07/28 01:06:12;;;;;;;3.30;1.80;;;;;;;22.36;40.33;98917.38;5034480;28;20170;-84
2023/07/28 01:08:49;;;;;;;3.67;1.40;;;;;;;22.40;40.31;98918.75;5036045;28;20220;-84
2023/07/28 01:11:14;;;;;;;4.27;1.80;;;;;;;22.43;40.37;98923.72;5036259;28;20193;-84
2023/07/28 01:13:40;;;;;;;3.10;1.80;;;;;;;22.43;40.18;98918.38;5034451;28;20205;-84
2023/07/28 01:16:06;;;;;;;3.33;1.80;;;;;;;22.39;40.20;98910.88;5034554;28;20210;-84
2023/07/28 01:18:32;;;;;;;3.63;1.90;;;;;;;22.39;40.15;98924.22;5035358;28;20265;-84
2023/07/28 01:21:01;;;;;;;3.67;1.73;;;;;;;22.31;40.67;98925.03;5035278;28;20170;-84
2023/07/28 01:23:44;;;;;;;5.00;1.90;;;;;;;22.28;40.86;98927.16;5034846;28;20205;-84
2023/07/28 01:26:11;;;;;;;4.90;1.87;;;;;;;22.27;41.44;98931.69;5035576;28;20186;-84
2023/07/28 01:28:39;;;;;;;4.40;2.03;;;;;;;22.23;40.78;98938.34;5035551;28;20181;-84
2023/07/28 01:31:06;;;;;;;2.93;1.80;;;;;;;22.20;41.10;98932.47;5034653;28;20217;-84
2023/07/28 01:33:31;;;;;;;3.47;1.73;;;;;;;22.23;40.75;98932.16;5035243;28;20162;-84
2023/07/28 01:35:58;;;;;;;2.50;1.73;;;;;;;22.17;40.79;98930.94;5034120;28;20171;-84
2023/07/28 01:38:24;;;;;;;3.10;1.63;;;;;;;22.14;41.17;98939.31;5034795;28;20185;-84
2023/07/28 01:40:49;;;;;;;4.60;2.50;;;;;;;22.10;41.75;98951.28;5034188;28;20178;-84
2023/07/28 01:43:15;;;;;;;2.63;1.63;;;;;;;22.01;42.06;98950.38;5035095;28;20570;-84
2023/07/28 01:45:40;;;;;;;3.13;1.50;;;;;;;21.96;42.15;98954.50;5034997;28;20224;-84
2023/07/28 01:48:08;;;;;;;3.60;1.73;;;;;;;21.95;42.12;98955.53;5035254;28;20189;-84
2023/07/28 01:50:33;;;;;;;5.07;1.93;;;;;;;21.78;42.22;98953.69;5034835;28;20189;-84
2023/07/28 01:52:59;;;;;;;3.40;1.77;;;;;;;21.69;42.09;98950.13;5033942;28;20178;-84
2023/07/28 01:55:24;;;;;;;3.03;1.97;;;;;;;21.58;42.26;98942.38;5035345;28;20174;-84
2023/07/28 01:58:01;;;;;;;6.07;2.43;;;;;;;21.52;42.86;98950.13;5034976;28;20202;-84
2023/07/28 02:00:27;;;;;;;3.40;2.10;;;;;;;21.52;43.16;98948.31;5034638;28;20346;-84
2023/07/28 02:02:53;;;;;;;4.40;1.90;;;;;;;21.51;43.12;98951.16;5034630;28;20642;-84
2023/07/28 02:05:18;;;;;;;4.20;2.30;;;;;;;21.54;43.05;98949.00;5034630;28;20197;-84
2023/07/28 02:07:44;;;;;;;8.53;2.30;;;;;;;21.56;42.79;98951.53;5034586;28;20637;-84
2023/07/28 02:10:12;;;;;;;3.43;2.17;;;;;;;21.54;43.50;98959.66;5034536;28;20193;-84
2023/07/28 02:12:38;;;;;;;5.90;2.87;;;;;;;21.49;43.35;98958.47;5034812;28;20190;-84
2023/07/28 02:15:05;;;;;;;4.37;2.50;;;;;;;21.47;43.18;98961.28;5033385;28;20644;-84
2023/07/28 02:17:31;;;;;;;4.63;2.53;;;;;;;21.47;43.09;98960.44;5034267;28;20190;-84
2023/07/28 02:19:56;;;;;;;3.57;2.30;;;;;;;21.44;43.17;98969.56;5033426;28;20181;-84
2023/07/28 02:22:21;;;;;;;4.13;2.00;;;;;;;21.51;42.84;98967.16;5033290;28;20182;-84
2023/07/28 02:24:47;;;;;;;4.97;2.67;;;;;;;21.27;43.89;98973.94;5034300;28;20178;-84
2023/07/28 02:27:12;;;;;;;4.43;2.40;;;;;;;21.26;43.69;98974.91;5033878;28;20198;-84
2023/07/28 02:29:38;;;;;;;4.37;2.63;;;;;;;21.41;43.57;98973.38;5033213;28;20246;-84
2023/07/28 02:32:04;;;;;;;6.70;2.60;;;;;;;21.46;43.74;98966.78;5034176;28;20257;-84
2023/07/28 02:34:29;;;;;;;3.60;2.13;;;;;;;21.39;44.00;98963.88;5034205;28;20178;-84
2023/07/28 02:36:55;;;;;;;5.93;3.13;;;;;;;21.29;43.97;98974.63;5033112;28;20694;-84
2023/07/28 02:39:21;;;;;;;2.87;1.77;;;;;;;21.19;44.50;98973.84;5034283;28;20253;-84
2023/07/28 02:41:46;;;;;;;4.43;2.37;;;;;;;21.12;45.09;98978.09;5034222;28;20183;-84
2023/07/28 02:44:12;;;;;;;4.03;2.47;;;;;;;21.11;44.75;98976.44;5033975;28;20266;-84
2023/07/28 02:46:37;;;;;;;4.47;2.70;;;;;;;21.01;45.09;98974.78;5033913;28;20686;-84
2023/07/28 02:49:03;;;;;;;4.67;2.40;;;;;;;20.93;45.03;98975.53;5033817;28;20178;-84
2023/07/28 02:51:30;;;;;;;4.07;2.40;;;;;;;20.84;45.07;98984.41;5032858;28;20193;-84
2023/07/28 02:53:55;;;;;;;3.37;2.37;;;;;;;20.72;45.33;98986.47;5032633;28;20179;-84
2023/07/28 02:56:21;;;;;;;5.00;2.33;;;;;;;20.66;45.28;98986.19;5033931;28;20198;-84
2023/07/28 02:58:48;;;;;;;3.83;2.00;;;;;;;20.64;45.24;98993.50;5034259;28;20647;-84
2023/07/28 03:01:13;;;;;;;6.13;2.40;;;;;;;20.59;45.40;98993.09;5032515;28;20190;-84
2023/07/28 03:03:39;;;;;;;4.60;2.30;;;;;;;20.49;45.67;98987.81;5032460;28;20186;-84
2023/07/28 03:06:04;;;;;;;3.80;2.43;;;;;;;20.43;45.58;98992.88;5032640;28;20186;-84
2023/07/28 03:08:30;;;;;;;5.50;2.40;;;;;;;20.41;45.55;98992.22;5033823;28;20256;-84
2023/07/28 03:10:57;;;;;;;5.77;2.67;;;;;;;20.32;45.71;98998.38;5033481;28;20166;-84
2023/07/28 03:13:22;;;;;;;5.20;2.77;;;;;;;20.26;46.25;98983.03;5033202;28;20177;-84
2023/07/28 03:15:47;;;;;;;5.77;2.97;;;;;;;20.19;46.52;98978.22;5033275;28;20178;-84
2023/07/28 03:18:13;;;;;;;5.47;2.17;;;;;;;20.17;46.31;98985.53;5032442;28;20185;-84
2023/07/28 03:20:38;;;;;;;6.10;2.60;;;;;;;20.05;46.88;98976.03;5033255;28;20637;-84
2023/07/28 03:23:04;;;;;;;4.20;2.60;;;;;;;20.00;47.00;98982.75;5032420;28;20170;-84
2023/07/28 03:25:29;;;;;;;7.43;2.57;;;;;;;20.00;47.13;98982.75;5033572;28;20174;-84
2023/07/28 03:27:54;;;;;;;5.20;2.70;;;;;;;19.98;46.90;98982.91;5033327;28;20588;-84
2023/07/28 03:30:20;;;;;;;3.83;2.53;;;;;;;19.93;47.40;98992.28;5033308;28;20166;-84
2023/07/28 03:32:45;;;;;;;6.60;2.53;;;;;;;19.91;47.49;98989.78;5033322;28;20675;-84
2023/07/28 03:35:11;;;;;;;4.30;2.67;;;;;;;19.88;48.22;99000.72;5033765;28;20171;-84
2023/07/28 03:37:36;;;;;;;5.27;2.57;;;;;;;19.89;48.36;99001.56;5033124;28;20202;-84
2023/07/28 03:40:02;;;;;;;3.57;2.30;;;;;;;19.89;48.14;99006.88;5032227;28;20189;-84
2023/07/28 03:42:27;;;;;;;4.60;2.93;;;;;;;19.87;48.11;99011.47;5033184;28;20320;-84
2023/07/28 03:44:53;;;;;;;3.93;2.37;;;;;;;19.80;48.02;99011.22;5031974;28;20174;-83
2023/07/28 03:47:19;;;;;;;5.40;3.13;;;;;;;19.75;48.53;99010.81;5034891;28;20170;-84
2023/07/28 03:49:44;;;;;;;5.07;3.17;;;;;;;19.60;49.36;99018.34;5037154;28;20170;-84
2023/07/28 03:52:10;;;;;;;4.30;2.60;;;;;;;19.64;49.68;99018.91;5037160;28;20657;-84
2023/07/28 03:54:35;;;;;;;7.40;3.10;;;;;;;19.67;49.68;99017.81;5036168;28;20178;-84
2023/07/28 03:57:00;;;;;;;5.37;2.40;;;;;;;19.68;50.19;99019.50;5037077;28;20277;-84
2023/07/28 03:59:26;;;;;;;4.90;2.43;;;;;;;19.66;50.58;99016.09;5037221;28;20268;-84
2023/07/28 04:01:52;;;;;;;5.07;3.10;;;;;;;19.72;50.40;99012.91;5036550;28;20183;-84
2023/07/28 04:04:17;;;;;;;5.13;3.03;;;;;;;19.61;50.30;99025.38;5036948;28;20167;-83
2023/07/28 04:06:45;;;;;;;4.73;2.97;;;;;;;19.59;50.35;99026.47;5035913;28;20183;-84
2023/07/28 04:09:13;;;;;;;10.40;3.47;;;;;;;19.65;51.15;99028.59;5036681;28;20627;-84
2023/07/28 04:11:38;;;;;;;5.07;3.40;;;;;;;19.68;51.49;99030.94;5036776;28;20166;-84
2023/07/28 04:14:04;;;;;;;6.30;3.23;;;;;;;19.74;51.52;99035.72;5035797;28;20616;-84
2023/07/28 04:16:30;;;;;;;7.37;2.57;;;;;;;19.80;51.63;99034.31;5036863;28;20202;-84
2023/07/28 04:18:56;;;;;;;6.07;3.30;;;;;;;19.88;51.01;99037.09;5035617;28;20688;-84
2023/07/28 04:21:21;;;;;;;7.00;3.50;;;;;;;20.02;50.45;99040.16;5036885;28;20167;-84
2023/07/28 04:23:46;;;;;;;7.27;3.30;;;;;;;20.09;51.07;99051.09;5036566;28;20536;-84
2023/07/28 04:26:12;;;;;;;7.00;2.97;;;;;;;20.17;51.18;99049.41;5036536;28;20201;-84
2023/07/28 04:28:37;;;;;;;4.30;2.93;;;;;;;20.25;51.04;99039.88;5036352;28;20170;-84
2023/07/28 04:31:03;;;;;;;6.57;2.70;;;;;;;20.34;50.78;99050.50;5036484;28;20174;-84
2023/07/28 04:33:28;;;;;;;6.07;3.70;;;;;;;20.47;50.63;99047.50;5036330;28;20349;-84
2023/07/28 04:35:53;;;;;;;4.20;2.80;;;;;;;20.55;50.25;99047.63;5035358;28;20174;-84
2023/07/28 04:38:19;;;;;;;4.10;2.50;;;;;;;20.66;49.68;99037.66;5036878;28;20177;-84
2023/07/28 04:40:44;;;;;;;5.90;2.43;;;;;;;20.78;49.83;99040.94;5035351;28;20174;-84
2023/07/28 04:43:10;;;;;;;7.27;3.47;;;;;;;20.86;50.15;99030.41;5035281;28;20174;-84
2023/07/28 04:45:36;;;;;;;4.80;2.87;;;;;;;20.99;50.32;99036.22;5035300;28;20170;-84
2023/07/28 04:48:02;;;;;;;8.37;2.83;;;;;;;21.12;50.80;99031.41;5036421;28;20545;-84
2023/07/28 04:50:28;;;;;;;8.37;3.30;;;;;;;21.24;50.89;99030.22;5036391;28;20185;-84
2023/07/28 04:52:54;;;;;;;4.23;2.37;;;;;;;21.41;50.47;99026.72;5035371;28;20244;-84
2023/07/28 04:55:20;;;;;;;5.30;3.03;;;;;;;21.54;50.12;99031.69;5036251;28;20179;-84
2023/07/28 04:57:45;;;;;;;3.93;2.70;;;;;;;21.71;49.25;99030.84;5034506;28;20225;-85
2023/07/28 05:00:11;;;;;;;4.43;2.50;;;;;;;21.76;47.34;99038.38;5035052;28;20194;-85
2023/07/28 05:02:37;;;;;;;4.00;2.43;;;;;;;22.35;46.46;99035.06;5036465;28;20170;-84
2023/07/28 05:05:02;;;;;;;5.70;2.80;;;;;;;23.15;45.05;99031.94;5034844;28;20181;-84
2023/07/28 05:07:28;;;;;;;5.17;2.70;;;;;;;23.98;43.10;99032.78;5034422;28;20610;-84
2023/07/28 05:09:54;;;;;;;3.73;2.30;;;;;;;24.39;42.12;99034.44;5036029;28;20185;-84
2023/07/28 05:12:20;;;;;;;8.53;2.67;;;;;;;24.37;41.85;99047.19;5035677;28;20257;-84
2023/07/28 05:14:46;;;;;;;5.30;2.40;;;;;;;24.28;41.57;99045.50;5034703;28;20261;-85
2023/07/28 05:17:11;;;;;;;7.40;2.40;;;;;;;24.25;42.35;99037.78;5035797;28;20524;-84
2023/07/28 05:19:37;;;;;;;3.83;2.10;;;;;;;24.41;40.95;99040.47;5035499;28;20185;-85
2023/07/28 05:22:02;;;;;;;6.87;2.43;;;;;;;24.76;40.66;99045.41;5035543;28;20266;-85
2023/07/28 05:24:28;;;;;;;4.23;1.93;;;;;;;24.81;39.65;99044.91;5034542;28;20268;-85
2023/07/28 05:26:53;;;;;;;4.93;1.93;;;;;;;25.55;38.57;99036.34;5035302;28;20511;-85
2023/07/28 05:29:19;;;;;;;4.37;2.13;;;;;;;26.21;37.62;99041.88;5035353;28;20664;-84
2023/07/28 05:31:45;;;;;;;3.10;1.80;;;;;;;26.65;37.07;99046.50;5035362;28;20170;-83
2023/07/28 05:34:12;;;;;;;3.47;2.03;;;;;;;26.83;36.53;99047.81;5035369;28;20217;-83
2023/07/28 05:36:37;;;;;;;5.33;1.80;;;;;;;26.98;36.07;99050.50;5034216;28;20203;-84
2023/07/28 05:39:03;;;;;;;4.50;2.00;;;;;;;27.42;35.50;99053.16;5034137;28;20182;-83
2023/07/28 05:41:28;;;;;;;3.83;1.80;;;;;;;27.52;35.38;99042.91;5034200;28;20209;-83
2023/07/28 05:43:53;;;;;;;3.00;1.50;;;;;;;27.59;35.02;99051.91;5035312;28;20167;-84
2023/07/28 05:46:19;;;;;;;4.90;1.75;;;;;;;27.62;35.11;99048.81;5035011;28;20175;-84
2023/07/28 05:48:44;;;;;;;3.58;1.70;;;;;;;27.64;34.79;99056.72;5034855;28;20186;-84
2023/07/28 05:51:10;;;;;;;2.78;1.42;;;;;;;27.82;34.02;99051.72;5035209;28;20226;-85
2023/07/28 05:53:35;;;;;;;2.45;1.50;;;;;;;27.82;35.00;99060.63;5035011;28;20605;-85
2023/07/28 05:56:00;;;;;;;2.17;1.30;;;;;;;27.68;34.88;99056.13;5034750;28;20175;-85
2023/07/28 05:58:26;;;;;;;3.60;1.40;;;;;;;27.38;34.43;99057.22;5034825;28;20170;-85
2023/07/28 06:00:51;;;;;;;3.65;1.17;;;;;;;27.34;35.14;99061.31;5034323;28;20190;-85
2023/07/28 06:03:16;;;;;;;3.28;1.42;;;;;;;27.15;34.16;99067.28;5034672;28;20179;-85
2023/07/28 06:05:42;;;;;;;3.10;1.15;;;;;;;27.11;34.32;99071.38;5034902;28;20667;-85
2023/07/28 06:08:08;;;;;;;3.07;1.43;;;;;;;27.00;34.48;99075.34;5034632;28;20254;-85
2023/07/28 06:10:34;;;;;;;2.60;1.13;;;;;;;26.99;34.39;99079.06;5033478;28;20270;-85
2023/07/28 06:13:00;;;;;;;2.38;1.30;;;;;;;26.81;33.58;99075.91;5034493;28;20254;-85
2023/07/28 06:15:25;;;;;;;2.60;1.17;;;;;;;26.79;34.64;99072.56;5034259;28;20700;-85
2023/07/28 06:17:51;;;;;;;2.17;1.10;;;;;;;26.92;33.72;99082.69;5033709;28;20357;-85
2023/07/28 06:20:16;;;;;;;2.67;1.35;;;;;;;26.96;34.71;99076.78;5034419;28;20256;-85
2023/07/28 06:22:41;;;;;;;2.30;1.27;;;;;;;26.69;33.64;99078.22;5033415;28;20181;-85
2023/07/28 06:25:07;;;;;;;2.97;1.27;;;;;;;26.98;35.03;99081.94;5033280;28;20628;-86
2023/07/28 06:27:33;;;;;;;2.03;1.02;;;;;;;27.15;34.92;99075.38;5033253;28;20170;-85
2023/07/28 06:29:58;;;;;;;2.80;1.67;;;;;;;27.43;34.56;99077.22;5034251;28;20200;-85
2023/07/28 06:32:23;;;;;;;4.78;1.77;;;;;;;27.57;35.23;99074.66;5033192;28;20179;-85
2023/07/28 06:34:51;;;;;;;3.17;1.50;;;;;;;27.82;33.43;99082.19;5034350;28;20222;-86
2023/07/28 06:37:17;;;;;;;4.45;1.30;;;;;;;27.96;32.94;99077.78;5033069;28;20206;-85
2023/07/28 06:39:42;;;;;;;3.05;1.50;;;;;;;28.02;33.02;99077.00;5033108;28;20689;-86
2023/07/28 06:42:08;;;;;;;2.80;1.20;;;;;;;28.31;32.54;99068.78;5032982;28;20171;-86
2023/07/28 06:44:33;;;;;;;2.47;1.17;;;;;;;28.40;32.81;99064.06;5033775;28;20174;-86
2023/07/28 06:46:58;;;;;;;3.10;1.38;;;;;;;28.62;33.11;99060.31;5032607;28;20171;-86
2023/07/28 06:49:24;;;;;;;2.25;1.00;;;;;;;28.88;33.20;99060.47;5032904;28;20170;-86
2023/07/28 06:51:49;;;;;;;3.30;1.23;;;;;;;29.18;31.40;99047.56;5032862;28;20178;-86
2023/07/28 06:54:15;;;;;;;2.30;1.20;;;;;;;29.42;31.29;99046.22;5033973;28;20543;-87
2023/07/28 06:56:40;;;;;;;4.90;1.25;;;;;;;29.68;29.80;99040.91;5033645;28;20690;-86
2023/07/28 06:59:07;;;;;;;2.60;0.80;;;;;;;29.81;30.05;99039.09;5033725;28;20170;-86
2023/07/28 07:01:33;;;;;;;2.47;0.90;;;;;;;29.88;29.36;99039.06;5033575;28;20194;-87
2023/07/28 07:03:59;;;;;;;1.65;0.75;;;;;;;30.01;28.56;99033.69;5032960;28;20170;-86
2023/07/28 07:06:24;;;;;;;2.97;0.90;;;;;;;30.12;28.98;99040.34;5032618;28;20185;-86
2023/07/28 07:08:50;;;;;;;3.05;1.00;;;;;;;30.43;29.74;99033.28;5033169;28;20178;-86
2023/07/28 07:11:15;;;;;;;1.73;0.80;;;;;;;30.70;29.14;99022.41;5032579;28;20556;-86
2023/07/28 07:13:41;;;;;;;6.13;0.90;;;;;;;30.93;27.88;99026.34;5033762;28;20647;-87
2023/07/28 07:16:16;;;;;;;1.80;0.75;;;;;;;30.83;27.96;99031.34;5033379;28;20605;-87
2023/07/28 07:18:44;;;;;;;1.85;0.98;;;;;;;31.22;28.17;99026.84;5033337;28;20497;-86
2023/07/28 07:21:10;;;;;;;4.63;1.08;;;;;;;31.27;28.85;99029.75;5032319;28;20179;-87
2023/07/28 07:23:36;;;;;;;1.85;0.77;;;;;;;31.62;28.16;99017.50;5032492;28;20588;-87
2023/07/28 07:26:02;;;;;;;3.63;0.98;;;;;;;31.89;28.14;99029.00;5033586;28;20178;-87
2023/07/28 07:28:28;;;;;;;1.55;0.68;;;;;;;32.13;27.90;99031.75;5032323;28;20178;-88
2023/07/28 07:30:54;;;;;;;1.13;0.60;;;;;;;32.21;26.21;99039.63;5033327;28;20228;-88
2023/07/28 07:33:20;;;;;;;1.23;0.52;;;;;;;32.50;26.02;99042.69;5032167;28;20192;-87
2023/07/28 07:35:45;;;;;;;1.27;0.70;;;;;;;32.63;26.36;99037.16;5033083;28;20265;-87
2023/07/28 07:38:10;;;;;;;1.55;0.65;;;;;;;32.92;24.60;99028.28;5032511;28;20561;-87
2023/07/28 07:40:37;;;;;;;2.13;0.90;;;;;;;33.13;24.95;99027.03;5033148;28;20632;-87
2023/07/28 07:43:04;;;;;;;1.67;0.65;;;;;;;33.27;25.94;99028.53;5032341;28;20259;-87
2023/07/28 07:45:30;;;;;;;3.78;0.52;;;;;;;33.33;24.41;99027.63;5033376;28;20182;-87
2023/07/28 07:47:55;;;;;;;2.60;0.65;;;;;;;33.43;23.96;99027.91;5033392;28;20167;-87
2023/07/28 07:50:21;;;;;;;1.33;0.60;;;;;;;32.76;23.48;99027.00;5033052;28;20170;-86
2023/07/28 07:52:47;;;;;;;1.58;0.65;;;;;;;32.99;25.42;99012.78;5033214;28;20185;-87
2023/07/28 07:55:13;;;;;;;1.30;0.57;;;;;;;32.90;24.42;99022.25;5032072;28;20698;-87
2023/07/28 07:57:39;;;;;;;1.10;0.55;;;;;;;33.23;25.67;99022.72;5031981;28;20202;-87
2023/07/28 08:00:05;;;;;;;2.85;0.80;;;;;;;33.18;23.94;99011.72;5031473;28;20194;-87
2023/07/28 08:02:31;;;;;;;1.92;0.80;;;;;;;33.32;23.51;99010.50;5031957;28;20181;-87
2023/07/28 08:04:57;;;;;;;1.58;0.70;;;;;;;33.80;22.98;99010.47;5032075;28;20175;-87
2023/07/28 08:07:23;;;;;;;1.73;0.70;;;;;;;33.60;22.04;99003.63;5031931;28;20178;-87
2023/07/28 08:09:49;;;;;;;2.78;0.65;;;;;;;33.90;22.90;99007.16;5032212;28;20309;-87
2023/07/28 08:12:15;;;;;;;1.85;0.50;;;;;;;34.08;21.99;99003.53;5033198;28;20197;-88
2023/07/28 08:14:40;;;;;;;3.08;0.70;;;;;;;34.12;22.14;99002.03;5032775;28;20186;-86
2023/07/28 08:17:06;;;;;;;1.45;0.70;;;;;;;34.24;22.47;98998.25;5033033;28;20198;-87
2023/07/28 08:19:31;;;;;;;1.83;0.90;;;;;;;34.21;22.48;98995.16;5032848;28;20182;-87
2023/07/28 08:21:56;;;;;;;2.58;0.60;;;;;;;34.13;20.73;98988.19;5033397;28;20253;-87
2023/07/28 08:24:22;;;;;;;2.97;0.95;;;;;;;33.89;22.50;98986.44;5032375;28;20602;-87
2023/07/28 08:26:47;;;;;;;1.55;0.70;;;;;;;34.04;22.14;98995.00;5031700;28;20266;-87
2023/07/28 08:29:13;;;;;;;2.13;0.82;;;;;;;34.41;21.01;98990.19;5031767;28;20232;-87
2023/07/28 08:31:38;;;;;;;2.33;1.05;;;;;;;34.27;21.40;98981.44;5032878;28;20260;-87
2023/07/28 08:34:04;;;;;;;1.50;0.73;;;;;;;34.25;21.75;98983.56;5033200;28;20586;-88
2023/07/28 08:36:29;;;;;;;2.30;0.80;;;;;;;34.51;21.63;98980.34;5035332;28;20215;-88
2023/07/28 08:38:54;;;;;;;1.45;0.60;;;;;;;34.41;21.87;98977.41;5035595;28;20688;-87
2023/07/28 08:41:20;;;;;;;4.38;0.80;;;;;;;34.45;21.69;98975.88;5035637;28;20211;-88
2023/07/28 08:43:46;;;;;;;2.80;0.80;;;;;;;34.59;22.52;98980.03;5036551;28;20171;-88
2023/07/28 08:46:11;;;;;;;1.73;0.50;;;;;;;34.38;22.21;98977.88;5036256;28;20186;-87
2023/07/28 08:48:37;;;;;;;1.70;0.85;;;;;;;34.09;22.19;98973.41;5034789;28;20209;-87
2023/07/28 08:51:08;;;;;;;3.10;0.55;;;;;;;34.38;22.85;98975.16;5035649;28;20179;-88
2023/07/28 08:53:33;;;;;;;2.75;0.70;;;;;;;34.74;21.39;98965.94;5036188;28;20612;-88
2023/07/28 08:55:59;;;;;;;1.83;0.50;;;;;;;34.85;20.91;98967.81;5034741;28;20174;-88
2023/07/28 08:58:24;;;;;;;1.30;0.70;;;;;;;35.03;19.99;98959.47;5034962;28;20178;-87
2023/07/28 09:00:52;;;;;;;2.17;0.70;;;;;;;35.07;21.09;98959.81;5035189;28;20201;-87
2023/07/28 09:03:19;;;;;;;1.17;0.60;;;;;;;35.24;20.66;98958.00;5035867;28;20235;-87
2023/07/28 09:05:46;;;;;;;1.40;0.50;;;;;;;34.94;20.13;98957.34;5035833;28;20185;-87
2023/07/28 09:08:15;;;;;;;1.38;0.68;;;;;;;34.98;19.22;98958.53;5035049;28;20612;-88
2023/07/28 09:10:49;;;;;;;1.60;0.73;;;;;;;35.21;19.98;98953.00;5035020;28;20182;-87
2023/07/28 09:13:16;;;;;;;1.48;0.68;;;;;;;35.46;19.26;98948.03;5034696;28;20632;-87
2023/07/28 09:15:42;;;;;;;1.17;0.60;;;;;;;35.47;20.00;98946.13;5034941;28;20323;-88
2023/07/28 09:18:12;;;;;;;1.45;1.08;;;;;;;35.73;19.36;98951.00;5035783;28;20281;-87
2023/07/28 09:20:39;;;;;;;1.70;0.65;;;;;;;35.85;19.38;98956.38;5035522;28;20228;-88
2023/07/28 09:23:07;;;;;;;2.00;0.75;;;;;;;35.51;22.20;98952.75;5035490;28;20243;-88
2023/07/28 09:25:33;;;;;;;1.20;0.60;;;;;;;35.50;21.55;98943.75;5035426;28;20170;-87
2023/07/28 09:27:59;;;;;;;1.58;0.98;;;;;;;35.63;21.02;98937.19;5035715;28;20181;-87
2023/07/28 09:30:26;;;;;;;3.13;0.75;;;;;;;35.51;21.21;98933.69;5035604;28;20177;-89
2023/07/28 09:32:53;;;;;;;2.15;0.60;;;;;;;35.74;21.21;98931.66;5027194;28;20183;-87
2023/07/28 09:35:20;;;;;;;2.10;0.90;;;;;;;35.84;19.68;98938.34;5015499;28;20171;-87
2023/07/28 09:37:52;;;;;;;1.17;0.63;;;;;;;36.06;20.64;98937.38;5014405;28;20212;-87
2023/07/28 09:40:21;;;;;;;2.35;0.63;;;;;;;36.11;20.07;98928.44;5014438;28;20241;-88
2023/07/28 09:42:54;;;;;;;0.90;0.38;;;;;;;35.84;20.17;98928.25;5014980;28;20179;-87
2023/07/28 09:45:21;;;;;;;1.95;0.50;;;;;;;35.11;20.77;98920.97;5017129;28;20548;-88
2023/07/28 09:47:50;;;;;;;1.38;0.50;;;;;;;35.35;21.78;98913.50;5035290;28;20245;-88
2023/07/28 09:50:17;;;;;;;1.70;0.70;;;;;;;35.21;21.15;98908.56;5035811;28;20178;-88
2023/07/28 09:52:46;;;;;;;1.23;0.60;;;;;;;34.85;20.67;98904.31;5034280;28;20182;-86
2023/07/28 09:55:13;;;;;;;1.65;0.57;;;;;;;35.22;20.90;98897.44;5033921;28;20170;-90
2023/07/28 09:57:46;;;;;;;0.93;0.60;;;;;;;34.86;20.86;98904.06;5034112;28;20686;-86
2023/07/28 10:00:13;;;;;;;1.73;0.68;;;;;;;34.92;20.41;98902.28;5034725;28;20256;-87
2023/07/28 10:02:39;;;;;;;1.35;0.73;;;;;;;35.15;21.15;98896.75;5034211;28;20182;-88
2023/07/28 10:05:10;;;;;;;0.95;0.50;;;;;;;35.56;19.52;98888.25;5034582;28;20170;-87
2023/07/28 10:07:38;;;;;;;1.85;0.55;;;;;;;35.82;20.36;98891.41;5034859;28;20167;-87
2023/07/28 10:10:10;;;;;;;1.88;0.60;;;;;;;35.92;20.58;98897.00;5033755;28;20204;-89
2023/07/28 10:12:55;;;;;;;1.23;0.65;;;;;;;35.71;21.63;98890.41;5034390;28;20186;-87
2023/07/28 10:15:27;;;;;;;3.05;0.55;;;;;;;35.98;19.84;98888.63;5034491;28;20198;-87
2023/07/28 10:17:57;;;;;;;3.65;1.00;;;;;;;36.10;19.86;98891.31;5033826;28;20202;-88
2023/07/28 10:20:32;;;;;;;1.70;0.55;;;;;;;36.37;19.59;98884.84;5033486;28;20166;-88
2023/07/28 10:23:07;;;;;;;1.90;0.60;;;;;;;36.40;19.26;98878.06;5034206;28;20181;-87
2023/07/28 10:25:35;;;;;;;3.83;1.08;;;;;;;36.38;19.22;98872.03;5034257;28;20639;-88
2023/07/28 10:28:02;;;;;;;4.22;0.68;;;;;;;36.40;19.90;98872.59;5033313;28;20661;-87
2023/07/28 10:30:27;;;;;;;0.57;0.30;;;;;;;36.40;19.94;98856.22;5033562;28;20643;-87
2023/07/28 10:32:55;;;;;;;1.83;0.60;;;;;;;36.10;19.89;98848.47;5033772;28;20182;-87
2023/07/28 10:35:25;;;;;;;1.52;0.65;;;;;;;36.12;19.16;98846.31;5033473;28;20259;-88
2023/07/28 10:37:53;;;;;;;1.08;0.50;;;;;;;36.55;19.58;98836.53;5034149;28;20194;-87
2023/07/28 10:40:28;;;;;;;1.85;0.85;;;;;;;37.00;18.32;98838.97;5033035;28;20389;-89
2023/07/28 10:42:54;;;;;;;2.03;0.82;;;;;;;36.77;18.74;98845.50;5033069;28;20185;-88
2023/07/28 10:45:22;;;;;;;1.55;0.60;;;;;;;37.04;19.02;98831.88;5033241;28;20553;-87
2023/07/28 10:47:48;;;;;;;1.52;0.98;;;;;;;36.68;17.73;98836.13;5033102;28;20257;-86
2023/07/28 10:50:14;;;;;;;2.15;0.80;;;;;;;36.30;18.88;98831.53;5033344;28;20336;-88
2023/07/28 10:52:41;;;;;;;0.63;0.40;;;;;;;36.61;18.56;98827.31;5034071;28;20174;-88
2023/07/28 10:55:24;;;;;;;1.77;0.60;;;;;;;36.69;18.62;98830.38;5032656;28;20170;-88
2023/07/28 10:57:51;;;;;;;2.20;0.60;;;;;;;37.03;18.17;98819.31;5032176;28;20259;-88
2023/07/28 11:00:18;;;;;;;3.38;0.77;;;;;;;36.43;18.53;98822.94;5034013;28;20267;-87
2023/07/28 11:02:45;;;;;;;1.45;0.63;;;;;;;36.57;19.61;98816.06;5032628;28;20178;-87
2023/07/28 11:05:14;;;;;;;1.45;0.40;;;;;;;36.80;18.82;98806.75;5033907;28;20198;-88
2023/07/28 11:07:43;;;;;;;1.58;0.90;;;;;;;36.89;17.80;98806.03;5033530;28;20175;-88
2023/07/28 11:10:14;;;;;;;1.73;0.70;;;;;;;37.32;17.80;98813.28;5032579;28;20174;-89
2023/07/28 11:12:45;;;;;;;1.10;0.47;;;;;;;36.65;17.33;98804.69;5032810;28;20178;-89
2023/07/28 11:15:11;;;;;;;2.13;0.90;;;;;;;35.96;19.23;98805.38;5032508;28;20178;-88
2023/07/28 11:17:38;;;;;;;0.90;0.50;;;;;;;36.62;19.00;98794.28;5032734;28;20230;-88
2023/07/28 11:20:14;;;;;;;1.55;0.38;;;;;;;36.90;18.82;98796.75;5033441;28;20257;-89
2023/07/28 11:22:39;;;;;;;1.73;0.68;;;;;;;37.42;18.73;98802.44;5032445;28;20170;-89
2023/07/28 11:25:09;;;;;;;2.67;0.68;;;;;;;37.53;17.05;98797.88;5033154;28;20544;-88
2023/07/28 11:27:36;;;;;;;1.50;0.70;;;;;;;37.79;17.66;98788.75;5034129;28;20166;-87
2023/07/28 11:30:06;;;;;;;2.53;0.60;;;;;;;37.68;17.86;98789.78;5033298;28;20194;-90